sensor_id;sensor_type;location;lat;lon;timestamp;pressure;altitude;pressure_sealevel;temperature
19040;BMP180;9652;49.014;12.052;2023-03-03T00:00:49;97888.00;;;6.10
19040;BMP180;9652;49.014;12.052;2023-03-03T00:03:19;97899.00;;;6.10
19040;BMP180;9652;49.014;12.052;2023-03-03T00:05:48;97893.00;;;6.10
19040;BMP180;9652;49.014;12.052;2023-03-03T00:08:16;97898.00;;;6.10
19040;BMP180;9652;49.014;12.052;2023-03-03T00:10:43;97907.00;;;6.00
19040;BMP180;9652;49.014;12.052;2023-03-03T00:13:17;97901.00;;;6.00
19040;BMP180;9652;49.014;12.052;2023-03-03T00:15:45;97910.00;;;6.00
19040;BMP180;9652;49.014;12.052;2023-03-03T00:18:27;97887.00;;;6.00
19040;BMP180;9652;49.014;12.052;2023-03-03T00:21:00;97893.00;;;6.00
19040;BMP180;9652;49.014;12.052;2023-03-03T00:23:35;97897.00;;;6.00
19040;BMP180;9652;49.014;12.052;2023-03-03T00:26:15;97901.00;;;6.00
19040;BMP180;9652;49.014;12.052;2023-03-03T00:28:48;97898.00;;;5.90
19040;BMP180;9652;49.014;12.052;2023-03-03T00:31:18;97903.00;;;5.90
19040;BMP180;9652;49.014;12.052;2023-03-03T00:33:49;97903.00;;;5.90
19040;BMP180;9652;49.014;12.052;2023-03-03T00:36:36;97890.00;;;5.90
19040;BMP180;9652;49.014;12.052;2023-03-03T00:39:26;97907.00;;;5.90
19040;BMP180;9652;49.014;12.052;2023-03-03T00:41:55;97850.00;;;5.80
19040;BMP180;9652;49.014;12.052;2023-03-03T00:44:39;97870.00;;;5.80
19040;BMP180;9652;49.014;12.052;2023-03-03T00:47:27;97898.00;;;5.80
19040;BMP180;9652;49.014;12.052;2023-03-03T00:50:16;97901.00;;;5.70
19040;BMP180;9652;49.014;12.052;2023-03-03T00:52:59;97893.00;;;5.70
19040;BMP180;9652;49.014;12.052;2023-03-03T00:55:27;97899.00;;;5.60
19040;BMP180;9652;49.014;12.052;2023-03-03T00:57:54;97893.00;;;5.60
19040;BMP180;9652;49.014;12.052;2023-03-03T01:00:27;97903.00;;;5.60
19040;BMP180;9652;49.014;12.052;2023-03-03T01:02:54;97894.00;;;5.60
19040;BMP180;9652;49.014;12.052;2023-03-03T01:05:22;97897.00;;;5.60
19040;BMP180;9652;49.014;12.052;2023-03-03T01:07:51;97903.00;;;5.60
19040;BMP180;9652;49.014;12.052;2023-03-03T01:10:18;97913.00;;;5.30
19040;BMP180;9652;49.014;12.052;2023-03-03T01:12:46;97904.00;;;5.50
19040;BMP180;9652;49.014;12.052;2023-03-03T01:15:14;97889.00;;;5.50
19040;BMP180;9652;49.014;12.052;2023-03-03T01:17:42;97895.00;;;5.50
19040;BMP180;9652;49.014;12.052;2023-03-03T01:20:13;97884.00;;;5.40
19040;BMP180;9652;49.014;12.052;2023-03-03T01:22:40;97898.00;;;5.40
19040;BMP180;9652;49.014;12.052;2023-03-03T01:25:10;97884.00;;;5.30
19040;BMP180;9652;49.014;12.052;2023-03-03T01:27:38;97900.00;;;5.30
19040;BMP180;9652;49.014;12.052;2023-03-03T01:30:08;97884.00;;;5.30
19040;BMP180;9652;49.014;12.052;2023-03-03T01:32:36;97889.00;;;5.30
19040;BMP180;9652;49.014;12.052;2023-03-03T01:35:05;97893.00;;;5.20
19040;BMP180;9652;49.014;12.052;2023-03-03T01:37:33;97886.00;;;5.20
19040;BMP180;9652;49.014;12.052;2023-03-03T01:40:03;97889.00;;;5.20
19040;BMP180;9652;49.014;12.052;2023-03-03T01:42:31;97890.00;;;5.20
19040;BMP180;9652;49.014;12.052;2023-03-03T01:45:15;97892.00;;;5.20
19040;BMP180;9652;49.014;12.052;2023-03-03T01:47:49;97893.00;;;5.10
19040;BMP180;9652;49.014;12.052;2023-03-03T01:50:29;97901.00;;;5.10
19040;BMP180;9652;49.014;12.052;2023-03-03T01:53:01;97872.00;;;5.10
19040;BMP180;9652;49.014;12.052;2023-03-03T01:55:33;97878.00;;;5.10
19040;BMP180;9652;49.014;12.052;2023-03-03T01:58:07;97871.00;;;5.00
19040;BMP180;9652;49.014;12.052;2023-03-03T02:00:38;97851.00;;;5.00
19040;BMP180;9652;49.014;12.052;2023-03-03T02:03:07;97888.00;;;5.00
19040;BMP180;9652;49.014;12.052;2023-03-03T02:05:35;97893.00;;;5.00
19040;BMP180;9652;49.014;12.052;2023-03-03T02:08:03;97896.00;;;4.90
19040;BMP180;9652;49.014;12.052;2023-03-03T02:10:34;97893.00;;;4.90
19040;BMP180;9652;49.014;12.052;2023-03-03T02:13:03;97904.00;;;4.90
19040;BMP180;9652;49.014;12.052;2023-03-03T02:15:32;97885.00;;;4.90
19040;BMP180;9652;49.014;12.052;2023-03-03T02:18:04;97887.00;;;4.90
19040;BMP180;9652;49.014;12.052;2023-03-03T02:20:43;97888.00;;;4.90
19040;BMP180;9652;49.014;12.052;2023-03-03T02:23:19;97881.00;;;4.90
19040;BMP180;9652;49.014;12.052;2023-03-03T02:26:07;97913.00;;;4.80
19040;BMP180;9652;49.014;12.052;2023-03-03T02:28:37;97883.00;;;4.80
19040;BMP180;9652;49.014;12.052;2023-03-03T02:31:10;97892.00;;;4.80
19040;BMP180;9652;49.014;12.052;2023-03-03T02:33:39;97893.00;;;4.80
19040;BMP180;9652;49.014;12.052;2023-03-03T02:36:10;97899.00;;;4.80
19040;BMP180;9652;49.014;12.052;2023-03-03T02:38:45;97888.00;;;4.70
19040;BMP180;9652;49.014;12.052;2023-03-03T02:41:28;97907.00;;;4.70
19040;BMP180;9652;49.014;12.052;2023-03-03T02:44:02;97908.00;;;4.70
19040;BMP180;9652;49.014;12.052;2023-03-03T02:46:33;97903.00;;;4.70
19040;BMP180;9652;49.014;12.052;2023-03-03T02:49:01;97904.00;;;4.70
19040;BMP180;9652;49.014;12.052;2023-03-03T02:51:29;97902.00;;;4.70
19040;BMP180;9652;49.014;12.052;2023-03-03T02:53:56;97888.00;;;4.70
19040;BMP180;9652;49.014;12.052;2023-03-03T02:56:27;97903.00;;;4.70
19040;BMP180;9652;49.014;12.052;2023-03-03T02:58:55;97889.00;;;4.70
19040;BMP180;9652;49.014;12.052;2023-03-03T03:01:22;97898.00;;;4.70
19040;BMP180;9652;49.014;12.052;2023-03-03T03:03:51;97900.00;;;4.70
19040;BMP180;9652;49.014;12.052;2023-03-03T03:06:21;97899.00;;;4.60
19040;BMP180;9652;49.014;12.052;2023-03-03T03:08:48;97889.00;;;4.60
19040;BMP180;9652;49.014;12.052;2023-03-03T03:11:15;97893.00;;;4.60
19040;BMP180;9652;49.014;12.052;2023-03-03T03:13:44;97901.00;;;4.60
19040;BMP180;9652;49.014;12.052;2023-03-03T03:16:12;97896.00;;;4.60
19040;BMP180;9652;49.014;12.052;2023-03-03T03:18:39;97902.00;;;4.50
19040;BMP180;9652;49.014;12.052;2023-03-03T03:21:09;97899.00;;;4.50
19040;BMP180;9652;49.014;12.052;2023-03-03T03:23:38;97897.00;;;4.50
19040;BMP180;9652;49.014;12.052;2023-03-03T03:26:07;97900.00;;;4.50
19040;BMP180;9652;49.014;12.052;2023-03-03T03:28:35;97897.00;;;4.50
19040;BMP180;9652;49.014;12.052;2023-03-03T03:31:06;97899.00;;;4.50
19040;BMP180;9652;49.014;12.052;2023-03-03T03:33:34;97881.00;;;4.40
19040;BMP180;9652;49.014;12.052;2023-03-03T03:36:02;97896.00;;;4.40
19040;BMP180;9652;49.014;12.052;2023-03-03T03:38:31;97889.00;;;4.40
19040;BMP180;9652;49.014;12.052;2023-03-03T03:40:59;97897.00;;;4.30
19040;BMP180;9652;49.014;12.052;2023-03-03T03:43:26;97890.00;;;4.30
19040;BMP180;9652;49.014;12.052;2023-03-03T03:45:54;97891.00;;;4.00
19040;BMP180;9652;49.014;12.052;2023-03-03T03:48:23;97908.00;;;4.30
19040;BMP180;9652;49.014;12.052;2023-03-03T03:50:50;97899.00;;;4.30
19040;BMP180;9652;49.014;12.052;2023-03-03T03:53:18;97909.00;;;4.30
19040;BMP180;9652;49.014;12.052;2023-03-03T03:55:46;97894.00;;;4.30
19040;BMP180;9652;49.014;12.052;2023-03-03T03:58:15;97900.00;;;4.20
19040;BMP180;9652;49.014;12.052;2023-03-03T04:00:47;97906.00;;;4.20
19040;BMP180;9652;49.014;12.052;2023-03-03T04:03:16;97910.00;;;4.20
19040;BMP180;9652;49.014;12.052;2023-03-03T04:05:46;97904.00;;;4.20
19040;BMP180;9652;49.014;12.052;2023-03-03T04:08:13;97910.00;;;3.90
19040;BMP180;9652;49.014;12.052;2023-03-03T04:10:42;97905.00;;;4.20
19040;BMP180;9652;49.014;12.052;2023-03-03T04:13:10;97897.00;;;4.20
19040;BMP180;9652;49.014;12.052;2023-03-03T04:15:38;97903.00;;;4.10
19040;BMP180;9652;49.014;12.052;2023-03-03T04:18:05;97904.00;;;4.10
19040;BMP180;9652;49.014;12.052;2023-03-03T04:20:32;97905.00;;;4.10
19040;BMP180;9652;49.014;12.052;2023-03-03T04:23:02;97912.00;;;4.10
19040;BMP180;9652;49.014;12.052;2023-03-03T04:25:31;97911.00;;;4.10
19040;BMP180;9652;49.014;12.052;2023-03-03T04:27:58;97914.00;;;4.10
19040;BMP180;9652;49.014;12.052;2023-03-03T04:30:26;97911.00;;;4.10
19040;BMP180;9652;49.014;12.052;2023-03-03T04:32:55;97919.00;;;4.00
19040;BMP180;9652;49.014;12.052;2023-03-03T04:35:25;97910.00;;;4.00
19040;BMP180;9652;49.014;12.052;2023-03-03T04:37:52;97922.00;;;4.00
19040;BMP180;9652;49.014;12.052;2023-03-03T04:40:21;97920.00;;;4.00
19040;BMP180;9652;49.014;12.052;2023-03-03T04:42:50;97915.00;;;4.00
19040;BMP180;9652;49.014;12.052;2023-03-03T04:45:17;97903.00;;;4.00
19040;BMP180;9652;49.014;12.052;2023-03-03T04:47:46;97908.00;;;3.90
19040;BMP180;9652;49.014;12.052;2023-03-03T04:50:13;97920.00;;;3.90
19040;BMP180;9652;49.014;12.052;2023-03-03T04:52:41;97920.00;;;3.90
19040;BMP180;9652;49.014;12.052;2023-03-03T04:55:09;97917.00;;;3.90
19040;BMP180;9652;49.014;12.052;2023-03-03T04:57:40;97922.00;;;3.90
19040;BMP180;9652;49.014;12.052;2023-03-03T05:00:08;97934.00;;;3.90
19040;BMP180;9652;49.014;12.052;2023-03-03T05:02:37;97929.00;;;3.90
19040;BMP180;9652;49.014;12.052;2023-03-03T05:05:06;97937.00;;;3.90
19040;BMP180;9652;49.014;12.052;2023-03-03T05:07:34;97931.00;;;4.00
19040;BMP180;9652;49.014;12.052;2023-03-03T05:10:02;97939.00;;;4.00
19040;BMP180;9652;49.014;12.052;2023-03-03T05:12:29;97944.00;;;4.00
19040;BMP180;9652;49.014;12.052;2023-03-03T05:14:57;97935.00;;;4.10
19040;BMP180;9652;49.014;12.052;2023-03-03T05:17:24;97927.00;;;4.10
19040;BMP180;9652;49.014;12.052;2023-03-03T05:19:51;97935.00;;;4.20
19040;BMP180;9652;49.014;12.052;2023-03-03T05:22:18;97935.00;;;4.20
19040;BMP180;9652;49.014;12.052;2023-03-03T05:24:45;97944.00;;;4.30
19040;BMP180;9652;49.014;12.052;2023-03-03T05:27:14;97938.00;;;4.30
19040;BMP180;9652;49.014;12.052;2023-03-03T05:29:41;97870.00;;;4.30
19040;BMP180;9652;49.014;12.052;2023-03-03T05:32:09;97948.00;;;4.40
19040;BMP180;9652;49.014;12.052;2023-03-03T05:34:37;97937.00;;;4.50
19040;BMP180;9652;49.014;12.052;2023-03-03T05:37:04;97943.00;;;4.50
19040;BMP180;9652;49.014;12.052;2023-03-03T05:39:32;97959.00;;;4.50
19040;BMP180;9652;49.014;12.052;2023-03-03T05:41:59;97958.00;;;4.60
19040;BMP180;9652;49.014;12.052;2023-03-03T05:44:27;97952.00;;;4.60
19040;BMP180;9652;49.014;12.052;2023-03-03T05:46:54;97965.00;;;4.60
19040;BMP180;9652;49.014;12.052;2023-03-03T05:49:24;97963.00;;;4.70
19040;BMP180;9652;49.014;12.052;2023-03-03T05:51:51;97949.00;;;4.70
19040;BMP180;9652;49.014;12.052;2023-03-03T05:54:18;97946.00;;;4.70
19040;BMP180;9652;49.014;12.052;2023-03-03T05:56:45;97955.00;;;4.70
19040;BMP180;9652;49.014;12.052;2023-03-03T05:59:12;97972.00;;;4.70
19040;BMP180;9652;49.014;12.052;2023-03-03T06:01:39;97956.00;;;4.70
19040;BMP180;9652;49.014;12.052;2023-03-03T06:04:06;97972.00;;;4.70
19040;BMP180;9652;49.014;12.052;2023-03-03T06:06:34;97971.00;;;4.70
19040;BMP180;9652;49.014;12.052;2023-03-03T06:09:02;97971.00;;;4.70
19040;BMP180;9652;49.014;12.052;2023-03-03T06:11:29;97949.00;;;4.70
19040;BMP180;9652;49.014;12.052;2023-03-03T06:13:56;97975.00;;;4.70
19040;BMP180;9652;49.014;12.052;2023-03-03T06:16:23;97977.00;;;4.60
19040;BMP180;9652;49.014;12.052;2023-03-03T06:18:51;97981.00;;;4.60
19040;BMP180;9652;49.014;12.052;2023-03-03T06:21:18;97963.00;;;4.60
19040;BMP180;9652;49.014;12.052;2023-03-03T06:23:46;97967.00;;;4.60
19040;BMP180;9652;49.014;12.052;2023-03-03T06:26:13;97969.00;;;4.60
19040;BMP180;9652;49.014;12.052;2023-03-03T06:28:40;97971.00;;;4.60
19040;BMP180;9652;49.014;12.052;2023-03-03T06:31:07;97994.00;;;4.60
19040;BMP180;9652;49.014;12.052;2023-03-03T06:33:34;97979.00;;;4.50
19040;BMP180;9652;49.014;12.052;2023-03-03T06:36:02;97993.00;;;4.50
19040;BMP180;9652;49.014;12.052;2023-03-03T06:38:29;97995.00;;;4.50
19040;BMP180;9652;49.014;12.052;2023-03-03T06:40:57;97998.00;;;4.50
19040;BMP180;9652;49.014;12.052;2023-03-03T06:43:26;97999.00;;;4.50
19040;BMP180;9652;49.014;12.052;2023-03-03T06:45:53;97998.00;;;4.50
19040;BMP180;9652;49.014;12.052;2023-03-03T06:48:20;97990.00;;;4.50
19040;BMP180;9652;49.014;12.052;2023-03-03T06:50:47;98000.00;;;4.50
19040;BMP180;9652;49.014;12.052;2023-03-03T06:53:17;97999.00;;;4.50
19040;BMP180;9652;49.014;12.052;2023-03-03T06:55:44;98028.00;;;4.50
19040;BMP180;9652;49.014;12.052;2023-03-03T06:58:15;98026.00;;;4.50
19040;BMP180;9652;49.014;12.052;2023-03-03T07:00:44;98010.00;;;4.50
19040;BMP180;9652;49.014;12.052;2023-03-03T07:03:15;98024.00;;;4.50
19040;BMP180;9652;49.014;12.052;2023-03-03T07:05:43;98008.00;;;4.60
19040;BMP180;9652;49.014;12.052;2023-03-03T07:08:15;98031.00;;;4.60
19040;BMP180;9652;49.014;12.052;2023-03-03T07:10:44;98012.00;;;4.60
19040;BMP180;9652;49.014;12.052;2023-03-03T07:13:19;98026.00;;;4.60
19040;BMP180;9652;49.014;12.052;2023-03-03T07:15:50;98029.00;;;4.70
19040;BMP180;9652;49.014;12.052;2023-03-03T07:18:34;98031.00;;;4.70
19040;BMP180;9652;49.014;12.052;2023-03-03T07:21:14;98036.00;;;4.80
19040;BMP180;9652;49.014;12.052;2023-03-03T07:23:44;98048.00;;;4.80
19040;BMP180;9652;49.014;12.052;2023-03-03T07:26:14;98038.00;;;4.80
19040;BMP180;9652;49.014;12.052;2023-03-03T07:28:50;98047.00;;;4.90
19040;BMP180;9652;49.014;12.052;2023-03-03T07:31:29;98043.00;;;4.90
19040;BMP180;9652;49.014;12.052;2023-03-03T07:33:59;98017.00;;;5.00
19040;BMP180;9652;49.014;12.052;2023-03-03T07:36:29;98030.00;;;5.00
19040;BMP180;9652;49.014;12.052;2023-03-03T07:39:00;97983.00;;;5.10
19040;BMP180;9652;49.014;12.052;2023-03-03T07:41:29;98035.00;;;5.10
19040;BMP180;9652;49.014;12.052;2023-03-03T07:44:05;98038.00;;;5.20
19040;BMP180;9652;49.014;12.052;2023-03-03T07:46:39;98040.00;;;5.20
19040;BMP180;9652;49.014;12.052;2023-03-03T07:49:21;98041.00;;;5.30
19040;BMP180;9652;49.014;12.052;2023-03-03T07:51:54;98048.00;;;5.30
19040;BMP180;9652;49.014;12.052;2023-03-03T07:54:34;98059.00;;;5.40
19040;BMP180;9652;49.014;12.052;2023-03-03T07:57:18;98052.00;;;5.50
19040;BMP180;9652;49.014;12.052;2023-03-03T07:59:49;98062.00;;;5.60
19040;BMP180;9652;49.014;12.052;2023-03-03T08:02:36;98063.00;;;5.60
19040;BMP180;9652;49.014;12.052;2023-03-03T08:05:32;98051.00;;;5.80
19040;BMP180;9652;49.014;12.052;2023-03-03T08:08:26;98066.00;;;5.90
19040;BMP180;9652;49.014;12.052;2023-03-03T08:10:56;98052.00;;;6.00
19040;BMP180;9652;49.014;12.052;2023-03-03T08:13:27;98057.00;;;6.10
19040;BMP180;9652;49.014;12.052;2023-03-03T08:16:01;98058.00;;;6.10
19040;BMP180;9652;49.014;12.052;2023-03-03T08:18:35;98058.00;;;6.10
19040;BMP180;9652;49.014;12.052;2023-03-03T08:21:06;98055.00;;;6.20
19040;BMP180;9652;49.014;12.052;2023-03-03T08:23:35;98056.00;;;6.20
19040;BMP180;9652;49.014;12.052;2023-03-03T08:26:02;98058.00;;;6.30
19040;BMP180;9652;49.014;12.052;2023-03-03T08:28:29;98050.00;;;6.40
19040;BMP180;9652;49.014;12.052;2023-03-03T08:30:58;98064.00;;;6.40
19040;BMP180;9652;49.014;12.052;2023-03-03T08:33:25;98075.00;;;6.50
19040;BMP180;9652;49.014;12.052;2023-03-03T08:35:52;98070.00;;;6.60
19040;BMP180;9652;49.014;12.052;2023-03-03T08:38:21;98080.00;;;6.60
19040;BMP180;9652;49.014;12.052;2023-03-03T08:40:49;98074.00;;;6.70
19040;BMP180;9652;49.014;12.052;2023-03-03T08:43:16;98082.00;;;6.80
19040;BMP180;9652;49.014;12.052;2023-03-03T08:45:48;98070.00;;;6.80
19040;BMP180;9652;49.014;12.052;2023-03-03T08:48:18;98092.00;;;6.90
19040;BMP180;9652;49.014;12.052;2023-03-03T08:50:45;98072.00;;;7.00
19040;BMP180;9652;49.014;12.052;2023-03-03T08:53:14;98084.00;;;7.10
19040;BMP180;9652;49.014;12.052;2023-03-03T08:55:41;98093.00;;;7.10
19040;BMP180;9652;49.014;12.052;2023-03-03T08:58:09;98093.00;;;7.20
19040;BMP180;9652;49.014;12.052;2023-03-03T09:00:36;98100.00;;;7.30
19040;BMP180;9652;49.014;12.052;2023-03-03T09:03:04;98098.00;;;7.40
19040;BMP180;9652;49.014;12.052;2023-03-03T09:05:36;98114.00;;;7.40
19040;BMP180;9652;49.014;12.052;2023-03-03T09:08:07;98092.00;;;7.50
19040;BMP180;9652;49.014;12.052;2023-03-03T09:10:35;98106.00;;;7.60
19040;BMP180;9652;49.014;12.052;2023-03-03T09:13:11;98113.00;;;7.60
19040;BMP180;9652;49.014;12.052;2023-03-03T09:15:40;98113.00;;;7.70
19040;BMP180;9652;49.014;12.052;2023-03-03T09:18:15;98062.00;;;7.80
19040;BMP180;9652;49.014;12.052;2023-03-03T09:20:46;98110.00;;;7.80
19040;BMP180;9652;49.014;12.052;2023-03-03T09:23:30;98094.00;;;7.90
19040;BMP180;9652;49.014;12.052;2023-03-03T09:26:22;98105.00;;;8.00
19040;BMP180;9652;49.014;12.052;2023-03-03T09:28:52;98096.00;;;8.10
19040;BMP180;9652;49.014;12.052;2023-03-03T09:31:25;98103.00;;;8.20
19040;BMP180;9652;49.014;12.052;2023-03-03T09:33:53;98107.00;;;8.20
19040;BMP180;9652;49.014;12.052;2023-03-03T09:36:27;98105.00;;;8.30
19040;BMP180;9652;49.014;12.052;2023-03-03T09:38:56;98089.00;;;8.40
19040;BMP180;9652;49.014;12.052;2023-03-03T09:42:08;98093.00;;;8.50
19040;BMP180;9652;49.014;12.052;2023-03-03T09:47:53;98110.00;;;8.60
19040;BMP180;9652;49.014;12.052;2023-03-03T09:50:33;98093.00;;;8.70
19040;BMP180;9652;49.014;12.052;2023-03-03T09:53:18;98090.00;;;8.70
19040;BMP180;9652;49.014;12.052;2023-03-03T09:55:52;98076.00;;;8.80
19040;BMP180;9652;49.014;12.052;2023-03-03T09:58:42;98080.00;;;8.90
19040;BMP180;9652;49.014;12.052;2023-03-03T10:01:47;98087.00;;;9.00
19040;BMP180;9652;49.014;12.052;2023-03-03T10:04:38;98101.00;;;9.10
19040;BMP180;9652;49.014;12.052;2023-03-03T10:07:26;98089.00;;;9.20
19040;BMP180;9652;49.014;12.052;2023-03-03T10:13:15;98104.00;;;9.30
19040;BMP180;9652;49.014;12.052;2023-03-03T10:16:13;98100.00;;;9.40
19040;BMP180;9652;49.014;12.052;2023-03-03T10:18:53;98090.00;;;9.50
19040;BMP180;9652;49.014;12.052;2023-03-03T10:21:29;98107.00;;;9.60
19040;BMP180;9652;49.014;12.052;2023-03-03T10:24:14;98106.00;;;9.60
19040;BMP180;9652;49.014;12.052;2023-03-03T10:27:09;98112.00;;;9.70
19040;BMP180;9652;49.014;12.052;2023-03-03T10:29:49;98120.00;;;9.80
19040;BMP180;9652;49.014;12.052;2023-03-03T10:32:46;98105.00;;;9.80
19040;BMP180;9652;49.014;12.052;2023-03-03T10:35:58;98104.00;;;9.90
19040;BMP180;9652;49.014;12.052;2023-03-03T10:38:41;98118.00;;;10.00
19040;BMP180;9652;49.014;12.052;2023-03-03T10:41:25;98114.00;;;10.00
19040;BMP180;9652;49.014;12.052;2023-03-03T10:44:23;98098.00;;;10.10
19040;BMP180;9652;49.014;12.052;2023-03-03T10:47:07;98102.00;;;10.10
19040;BMP180;9652;49.014;12.052;2023-03-03T10:49:59;98092.00;;;10.20
19040;BMP180;9652;49.014;12.052;2023-03-03T10:52:38;98078.00;;;10.30
19040;BMP180;9652;49.014;12.052;2023-03-03T10:58:37;98098.00;;;10.50
19040;BMP180;9652;49.014;12.052;2023-03-03T11:01:20;98099.00;;;10.60
19040;BMP180;9652;49.014;12.052;2023-03-03T11:04:20;98090.00;;;10.70
19040;BMP180;9652;49.014;12.052;2023-03-03T11:06:59;98086.00;;;10.70
19040;BMP180;9652;49.014;12.052;2023-03-03T11:09:58;98091.00;;;10.90
19040;BMP180;9652;49.014;12.052;2023-03-03T11:12:43;98095.00;;;11.00
19040;BMP180;9652;49.014;12.052;2023-03-03T11:15:34;98065.00;;;11.00
19040;BMP180;9652;49.014;12.052;2023-03-03T11:18:17;98084.00;;;11.10
19040;BMP180;9652;49.014;12.052;2023-03-03T11:20:55;98082.00;;;11.20
19040;BMP180;9652;49.014;12.052;2023-03-03T11:26:48;98086.00;;;11.40
19040;BMP180;9652;49.014;12.052;2023-03-03T11:29:31;98075.00;;;11.40
19040;BMP180;9652;49.014;12.052;2023-03-03T11:32:18;98088.00;;;11.50
19040;BMP180;9652;49.014;12.052;2023-03-03T11:35:04;98086.00;;;11.50
19040;BMP180;9652;49.014;12.052;2023-03-03T11:37:39;98091.00;;;11.60
19040;BMP180;9652;49.014;12.052;2023-03-03T11:40:17;98078.00;;;11.60
19040;BMP180;9652;49.014;12.052;2023-03-03T11:43:00;98075.00;;;11.60
19040;BMP180;9652;49.014;12.052;2023-03-03T11:45:37;98050.00;;;11.70
19040;BMP180;9652;49.014;12.052;2023-03-03T11:48:14;98054.00;;;11.80
19040;BMP180;9652;49.014;12.052;2023-03-03T11:50:54;98067.00;;;11.90
19040;BMP180;9652;49.014;12.052;2023-03-03T11:53:35;98061.00;;;11.90
19040;BMP180;9652;49.014;12.052;2023-03-03T11:56:18;98063.00;;;12.00
19040;BMP180;9652;49.014;12.052;2023-03-03T11:58:57;98053.00;;;12.00
19040;BMP180;9652;49.014;12.052;2023-03-03T12:01:35;98046.00;;;12.10
19040;BMP180;9652;49.014;12.052;2023-03-03T12:04:08;98060.00;;;12.20
19040;BMP180;9652;49.014;12.052;2023-03-03T12:06:56;98056.00;;;12.20
19040;BMP180;9652;49.014;12.052;2023-03-03T12:09:41;98052.00;;;12.30
19040;BMP180;9652;49.014;12.052;2023-03-03T12:12:15;98049.00;;;12.30
19040;BMP180;9652;49.014;12.052;2023-03-03T12:15:03;98051.00;;;12.40
19040;BMP180;9652;49.014;12.052;2023-03-03T12:17:56;98052.00;;;12.40
19040;BMP180;9652;49.014;12.052;2023-03-03T12:20:33;98057.00;;;12.50
19040;BMP180;9652;49.014;12.052;2023-03-03T12:23:25;98049.00;;;12.50
19040;BMP180;9652;49.014;12.052;2023-03-03T12:26:02;98044.00;;;12.60
19040;BMP180;9652;49.014;12.052;2023-03-03T12:28:36;98040.00;;;12.60
19040;BMP180;9652;49.014;12.052;2023-03-03T12:31:22;98044.00;;;12.70
19040;BMP180;9652;49.014;12.052;2023-03-03T12:33:56;98037.00;;;12.70
19040;BMP180;9652;49.014;12.052;2023-03-03T12:36:42;98029.00;;;12.80
19040;BMP180;9652;49.014;12.052;2023-03-03T12:39:30;98028.00;;;12.80
19040;BMP180;9652;49.014;12.052;2023-03-03T12:42:14;98028.00;;;12.90
19040;BMP180;9652;49.014;12.052;2023-03-03T12:44:49;98021.00;;;12.90
19040;BMP180;9652;49.014;12.052;2023-03-03T12:47:26;98014.00;;;13.00
19040;BMP180;9652;49.014;12.052;2023-03-03T12:50:13;97999.00;;;13.00
19040;BMP180;9652;49.014;12.052;2023-03-03T12:52:55;98004.00;;;13.00
19040;BMP180;9652;49.014;12.052;2023-03-03T12:55:45;97997.00;;;13.10
19040;BMP180;9652;49.014;12.052;2023-03-03T12:58:27;98004.00;;;13.10
19040;BMP180;9652;49.014;12.052;2023-03-03T13:01:18;97995.00;;;13.20
19040;BMP180;9652;49.014;12.052;2023-03-03T13:03:58;97957.00;;;13.20
19040;BMP180;9652;49.014;12.052;2023-03-03T13:06:30;98000.00;;;13.30
19040;BMP180;9652;49.014;12.052;2023-03-03T13:09:12;97979.00;;;13.30
19040;BMP180;9652;49.014;12.052;2023-03-03T13:12:07;97985.00;;;13.30
19040;BMP180;9652;49.014;12.052;2023-03-03T13:14:48;97986.00;;;13.40
19040;BMP180;9652;49.014;12.052;2023-03-03T13:17:24;98005.00;;;13.40
19040;BMP180;9652;49.014;12.052;2023-03-03T13:19:57;97996.00;;;13.40
19040;BMP180;9652;49.014;12.052;2023-03-03T13:22:37;97985.00;;;13.40
19040;BMP180;9652;49.014;12.052;2023-03-03T13:25:33;98007.00;;;13.50
19040;BMP180;9652;49.014;12.052;2023-03-03T13:28:13;97992.00;;;13.50
19040;BMP180;9652;49.014;12.052;2023-03-03T13:30:48;97986.00;;;13.50
19040;BMP180;9652;49.014;12.052;2023-03-03T13:33:24;97985.00;;;13.50
19040;BMP180;9652;49.014;12.052;2023-03-03T13:35:56;97992.00;;;13.60
19040;BMP180;9652;49.014;12.052;2023-03-03T13:38:29;97987.00;;;13.60
19040;BMP180;9652;49.014;12.052;2023-03-03T13:41:06;97995.00;;;13.60
19040;BMP180;9652;49.014;12.052;2023-03-03T13:43:43;98005.00;;;13.70
19040;BMP180;9652;49.014;12.052;2023-03-03T13:46:19;97994.00;;;13.70
19040;BMP180;9652;49.014;12.052;2023-03-03T13:52:02;97999.00;;;13.80
19040;BMP180;9652;49.014;12.052;2023-03-03T13:54:56;97996.00;;;13.80
19040;BMP180;9652;49.014;12.052;2023-03-03T13:57:43;97993.00;;;13.90
19040;BMP180;9652;49.014;12.052;2023-03-03T14:00:33;97975.00;;;13.90
19040;BMP180;9652;49.014;12.052;2023-03-03T14:03:37;97992.00;;;13.90
19040;BMP180;9652;49.014;12.052;2023-03-03T14:06:13;97990.00;;;14.00
19040;BMP180;9652;49.014;12.052;2023-03-03T14:09:11;97982.00;;;14.00
19040;BMP180;9652;49.014;12.052;2023-03-03T14:11:51;97976.00;;;14.00
19040;BMP180;9652;49.014;12.052;2023-03-03T14:14:39;97973.00;;;14.00
19040;BMP180;9652;49.014;12.052;2023-03-03T14:17:22;97978.00;;;14.10
19040;BMP180;9652;49.014;12.052;2023-03-03T14:20:03;97978.00;;;14.20
19040;BMP180;9652;49.014;12.052;2023-03-03T14:22:48;97973.00;;;14.10
19040;BMP180;9652;49.014;12.052;2023-03-03T14:25:18;97971.00;;;14.20
19040;BMP180;9652;49.014;12.052;2023-03-03T14:28:09;97970.00;;;14.30
19040;BMP180;9652;49.014;12.052;2023-03-03T14:30:40;97969.00;;;14.30
19040;BMP180;9652;49.014;12.052;2023-03-03T14:33:27;97970.00;;;14.40
19040;BMP180;9652;49.014;12.052;2023-03-03T14:36:12;97969.00;;;14.50
19040;BMP180;9652;49.014;12.052;2023-03-03T14:38:48;97965.00;;;14.60
19040;BMP180;9652;49.014;12.052;2023-03-03T14:41:20;97961.00;;;14.70
19040;BMP180;9652;49.014;12.052;2023-03-03T14:43:59;97959.00;;;14.90
19040;BMP180;9652;49.014;12.052;2023-03-03T14:46:36;97959.00;;;15.00
19040;BMP180;9652;49.014;12.052;2023-03-03T14:49:15;97955.00;;;15.10
19040;BMP180;9652;49.014;12.052;2023-03-03T14:52:01;97951.00;;;15.20
19040;BMP180;9652;49.014;12.052;2023-03-03T14:54:36;97953.00;;;15.20
19040;BMP180;9652;49.014;12.052;2023-03-03T14:57:11;97950.00;;;15.20
19040;BMP180;9652;49.014;12.052;2023-03-03T14:59:56;97941.00;;;15.30
19040;BMP180;9652;49.014;12.052;2023-03-03T15:02:31;97949.00;;;15.30
19040;BMP180;9652;49.014;12.052;2023-03-03T15:05:24;97946.00;;;15.40
19040;BMP180;9652;49.014;12.052;2023-03-03T15:07:53;97940.00;;;15.40
19040;BMP180;9652;49.014;12.052;2023-03-03T15:10:34;97940.00;;;15.50
19040;BMP180;9652;49.014;12.052;2023-03-03T15:13:32;97930.00;;;15.50
19040;BMP180;9652;49.014;12.052;2023-03-03T15:16:08;97938.00;;;15.60
19040;BMP180;9652;49.014;12.052;2023-03-03T15:22:08;97930.00;;;15.60